sensor_id;sensor_type;location;lat;lon;timestamp;temperature;humidity
81136;DHT22;70622;50.886;3.890;2023-09-19T00:00:36;15.10;76.60
81136;DHT22;70622;50.886;3.890;2023-09-19T00:03:02;15.10;76.40
81136;DHT22;70622;50.886;3.890;2023-09-19T00:05:29;15.10;75.90
81136;DHT22;70622;50.886;3.890;2023-09-19T00:07:56;15.10;75.40
81136;DHT22;70622;50.886;3.890;2023-09-19T00:10:26;15.10;75.40
81136;DHT22;70622;50.886;3.890;2023-09-19T00:12:53;15.00;75.20
81136;DHT22;70622;50.886;3.890;2023-09-19T00:15:21;15.00;76.80
81136;DHT22;70622;50.886;3.890;2023-09-19T00:17:47;15.00;75.60
81136;DHT22;70622;50.886;3.890;2023-09-19T00:20:13;15.00;75.90
81136;DHT22;70622;50.886;3.890;2023-09-19T00:22:40;14.90;76.30
81136;DHT22;70622;50.886;3.890;2023-09-19T00:25:07;14.90;76.50
81136;DHT22;70622;50.886;3.890;2023-09-19T00:27:32;14.90;76.70
81136;DHT22;70622;50.886;3.890;2023-09-19T00:29:59;14.80;77.10
81136;DHT22;70622;50.886;3.890;2023-09-19T00:32:25;14.80;76.90
81136;DHT22;70622;50.886;3.890;2023-09-19T00:34:56;14.70;77.60
81136;DHT22;70622;50.886;3.890;2023-09-19T00:37:22;14.80;78.00
81136;DHT22;70622;50.886;3.890;2023-09-19T00:39:47;14.80;78.50
81136;DHT22;70622;50.886;3.890;2023-09-19T00:42:19;14.70;78.30
81136;DHT22;70622;50.886;3.890;2023-09-19T00:45:08;14.70;78.20
81136;DHT22;70622;50.886;3.890;2023-09-19T00:47:49;14.70;77.80
81136;DHT22;70622;50.886;3.890;2023-09-19T00:50:18;14.80;78.10
81136;DHT22;70622;50.886;3.890;2023-09-19T00:52:54;14.80;78.10
81136;DHT22;70622;50.886;3.890;2023-09-19T00:55:36;14.80;77.70
81136;DHT22;70622;50.886;3.890;2023-09-19T00:58:11;14.80;77.10
81136;DHT22;70622;50.886;3.890;2023-09-19T01:00:51;14.90;76.30
81136;DHT22;70622;50.886;3.890;2023-09-19T01:03:25;15.00;75.70
81136;DHT22;70622;50.886;3.890;2023-09-19T01:06:09;15.10;74.80
81136;DHT22;70622;50.886;3.890;2023-09-19T01:08:44;15.10;74.70
81136;DHT22;70622;50.886;3.890;2023-09-19T01:11:35;15.10;74.20
81136;DHT22;70622;50.886;3.890;2023-09-19T01:30:17;15.20;74.80
81136;DHT22;70622;50.886;3.890;2023-09-19T01:32:43;14.90;75.50
81136;DHT22;70622;50.886;3.890;2023-09-19T01:35:11;14.90;75.80
81136;DHT22;70622;50.886;3.890;2023-09-19T01:37:38;14.90;75.80
81136;DHT22;70622;50.886;3.890;2023-09-19T01:40:04;15.00;75.00
81136;DHT22;70622;50.886;3.890;2023-09-19T01:45:35;15.00;74.40
81136;DHT22;70622;50.886;3.890;2023-09-19T01:48:14;15.10;74.40
81136;DHT22;70622;50.886;3.890;2023-09-19T01:50:48;15.10;73.90
81136;DHT22;70622;50.886;3.890;2023-09-19T01:53:33;15.10;73.50
81136;DHT22;70622;50.886;3.890;2023-09-19T01:56:01;15.20;72.90
81136;DHT22;70622;50.886;3.890;2023-09-19T01:58:30;15.30;72.80
81136;DHT22;70622;50.886;3.890;2023-09-19T02:00:58;15.30;72.20
81136;DHT22;70622;50.886;3.890;2023-09-19T02:03:25;15.40;72.30
81136;DHT22;70622;50.886;3.890;2023-09-19T02:05:52;15.40;72.20
81136;DHT22;70622;50.886;3.890;2023-09-19T02:08:19;15.40;73.10
81136;DHT22;70622;50.886;3.890;2023-09-19T02:10:45;15.40;73.10
81136;DHT22;70622;50.886;3.890;2023-09-19T02:13:15;15.30;73.40
81136;DHT22;70622;50.886;3.890;2023-09-19T02:15:41;15.40;73.10
81136;DHT22;70622;50.886;3.890;2023-09-19T02:18:07;15.30;74.50
81136;DHT22;70622;50.886;3.890;2023-09-19T02:20:32;15.20;73.50
81136;DHT22;70622;50.886;3.890;2023-09-19T02:22:58;15.20;73.80
81136;DHT22;70622;50.886;3.890;2023-09-19T02:25:24;15.20;73.70
81136;DHT22;70622;50.886;3.890;2023-09-19T02:27:52;15.20;73.80
81136;DHT22;70622;50.886;3.890;2023-09-19T02:30:19;15.20;73.70
81136;DHT22;70622;50.886;3.890;2023-09-19T02:32:47;15.20;73.60
81136;DHT22;70622;50.886;3.890;2023-09-19T02:35:14;15.10;73.70
81136;DHT22;70622;50.886;3.890;2023-09-19T02:37:41;15.10;74.00
81136;DHT22;70622;50.886;3.890;2023-09-19T02:40:07;15.00;74.30
81136;DHT22;70622;50.886;3.890;2023-09-19T02:42:53;15.10;74.50
81136;DHT22;70622;50.886;3.890;2023-09-19T02:45:19;15.10;74.40
81136;DHT22;70622;50.886;3.890;2023-09-19T02:47:45;15.00;74.50
81136;DHT22;70622;50.886;3.890;2023-09-19T02:50:11;15.10;75.10
81136;DHT22;70622;50.886;3.890;2023-09-19T02:52:36;15.10;75.60
81136;DHT22;70622;50.886;3.890;2023-09-19T02:55:02;15.10;76.00
81136;DHT22;70622;50.886;3.890;2023-09-19T02:57:29;15.00;77.00
81136;DHT22;70622;50.886;3.890;2023-09-19T02:59:56;14.90;77.20
81136;DHT22;70622;50.886;3.890;2023-09-19T03:02:22;14.90;78.10
81136;DHT22;70622;50.886;3.890;2023-09-19T03:04:49;14.90;78.60
81136;DHT22;70622;50.886;3.890;2023-09-19T03:07:16;14.90;78.90
81136;DHT22;70622;50.886;3.890;2023-09-19T03:09:42;14.90;79.10
81136;DHT22;70622;50.886;3.890;2023-09-19T03:12:08;14.90;79.40
81136;DHT22;70622;50.886;3.890;2023-09-19T03:14:34;14.90;79.70
81136;DHT22;70622;50.886;3.890;2023-09-19T03:17:00;14.90;79.50
81136;DHT22;70622;50.886;3.890;2023-09-19T03:19:26;14.90;79.40
81136;DHT22;70622;50.886;3.890;2023-09-19T03:21:52;14.80;79.30
81136;DHT22;70622;50.886;3.890;2023-09-19T03:24:18;14.80;79.10
81136;DHT22;70622;50.886;3.890;2023-09-19T03:26:45;14.80;79.50
81136;DHT22;70622;50.886;3.890;2023-09-19T03:29:10;14.80;79.70
81136;DHT22;70622;50.886;3.890;2023-09-19T03:31:36;14.80;79.70
81136;DHT22;70622;50.886;3.890;2023-09-19T03:34:02;14.80;79.30
81136;DHT22;70622;50.886;3.890;2023-09-19T03:36:29;14.80;80.20
81136;DHT22;70622;50.886;3.890;2023-09-19T03:38:54;14.80;78.80
81136;DHT22;70622;50.886;3.890;2023-09-19T03:41:20;14.80;79.10
81136;DHT22;70622;50.886;3.890;2023-09-19T03:43:45;14.80;79.30
81136;DHT22;70622;50.886;3.890;2023-09-19T03:46:11;14.70;79.50
81136;DHT22;70622;50.886;3.890;2023-09-19T03:48:38;14.60;80.10
81136;DHT22;70622;50.886;3.890;2023-09-19T03:51:03;14.60;80.20
81136;DHT22;70622;50.886;3.890;2023-09-19T03:53:29;14.50;80.40
81136;DHT22;70622;50.886;3.890;2023-09-19T03:55:54;14.50;80.80
81136;DHT22;70622;50.886;3.890;2023-09-19T03:58:20;14.40;81.10
81136;DHT22;70622;50.886;3.890;2023-09-19T04:00:46;14.40;81.60
81136;DHT22;70622;50.886;3.890;2023-09-19T04:03:11;14.30;81.70
81136;DHT22;70622;50.886;3.890;2023-09-19T04:05:45;14.30;82.00
81136;DHT22;70622;50.886;3.890;2023-09-19T04:08:11;14.30;81.90
81136;DHT22;70622;50.886;3.890;2023-09-19T04:10:37;14.30;82.20
81136;DHT22;70622;50.886;3.890;2023-09-19T04:13:03;14.20;82.20
81136;DHT22;70622;50.886;3.890;2023-09-19T04:15:29;14.30;82.40
81136;DHT22;70622;50.886;3.890;2023-09-19T04:17:54;14.20;82.50
81136;DHT22;70622;50.886;3.890;2023-09-19T04:20:20;14.20;82.80
81136;DHT22;70622;50.886;3.890;2023-09-19T04:22:48;14.10;83.40
81136;DHT22;70622;50.886;3.890;2023-09-19T04:25:14;14.10;83.70
81136;DHT22;70622;50.886;3.890;2023-09-19T04:27:39;14.10;83.70
81136;DHT22;70622;50.886;3.890;2023-09-19T04:30:07;14.00;83.80
81136;DHT22;70622;50.886;3.890;2023-09-19T04:32:36;14.00;83.90
81136;DHT22;70622;50.886;3.890;2023-09-19T04:35:08;13.90;84.20
81136;DHT22;70622;50.886;3.890;2023-09-19T04:37:40;13.90;84.30
81136;DHT22;70622;50.886;3.890;2023-09-19T04:40:07;13.90;84.60
81136;DHT22;70622;50.886;3.890;2023-09-19T04:42:40;13.80;84.90
81136;DHT22;70622;50.886;3.890;2023-09-19T04:45:07;13.90;85.00
81136;DHT22;70622;50.886;3.890;2023-09-19T04:47:34;13.90;85.20
81136;DHT22;70622;50.886;3.890;2023-09-19T04:50:00;13.80;85.50
81136;DHT22;70622;50.886;3.890;2023-09-19T04:52:25;13.80;85.50
81136;DHT22;70622;50.886;3.890;2023-09-19T04:54:51;13.80;85.50
81136;DHT22;70622;50.886;3.890;2023-09-19T04:57:17;13.80;85.80
81136;DHT22;70622;50.886;3.890;2023-09-19T04:59:42;13.80;85.90
81136;DHT22;70622;50.886;3.890;2023-09-19T05:02:08;13.90;85.80
81136;DHT22;70622;50.886;3.890;2023-09-19T05:04:33;14.00;85.50
81136;DHT22;70622;50.886;3.890;2023-09-19T05:06:59;14.00;85.20
81136;DHT22;70622;50.886;3.890;2023-09-19T05:09:26;14.00;85.30
81136;DHT22;70622;50.886;3.890;2023-09-19T05:11:52;14.10;85.40
81136;DHT22;70622;50.886;3.890;2023-09-19T05:14:22;14.00;85.50
81136;DHT22;70622;50.886;3.890;2023-09-19T05:17:03;14.00;85.70
81136;DHT22;70622;50.886;3.890;2023-09-19T05:19:58;13.90;85.70
81136;DHT22;70622;50.886;3.890;2023-09-19T05:25:59;14.00;86.20
81136;DHT22;70622;50.886;3.890;2023-09-19T05:28:41;13.90;86.30
81136;DHT22;70622;50.886;3.890;2023-09-19T05:32:08;13.90;86.20
81136;DHT22;70622;50.886;3.890;2023-09-19T05:47:41;14.00;86.40
81136;DHT22;70622;50.886;3.890;2023-09-19T06:03:34;14.10;86.00
81136;DHT22;70622;50.886;3.890;2023-09-19T06:06:06;14.10;86.10
81136;DHT22;70622;50.886;3.890;2023-09-19T06:08:32;14.20;86.00
81136;DHT22;70622;50.886;3.890;2023-09-19T06:10:59;14.20;85.80
81136;DHT22;70622;50.886;3.890;2023-09-19T06:13:30;14.30;85.50
81136;DHT22;70622;50.886;3.890;2023-09-19T06:15:57;14.20;85.50
81136;DHT22;70622;50.886;3.890;2023-09-19T06:18:24;14.30;85.40
81136;DHT22;70622;50.886;3.890;2023-09-19T06:24:00;14.50;84.60
81136;DHT22;70622;50.886;3.890;2023-09-19T06:26:26;14.60;83.70
81136;DHT22;70622;50.886;3.890;2023-09-19T06:29:07;14.70;83.60
81136;DHT22;70622;50.886;3.890;2023-09-19T06:31:56;14.80;83.20
81136;DHT22;70622;50.886;3.890;2023-09-19T06:34:42;14.80;82.90
81136;DHT22;70622;50.886;3.890;2023-09-19T06:37:09;14.90;82.90
81136;DHT22;70622;50.886;3.890;2023-09-19T06:39:44;14.80;82.60
81136;DHT22;70622;50.886;3.890;2023-09-19T06:42:17;14.90;82.40
81136;DHT22;70622;50.886;3.890;2023-09-19T06:44:48;14.90;82.60
81136;DHT22;70622;50.886;3.890;2023-09-19T06:47:23;14.90;83.20
81136;DHT22;70622;50.886;3.890;2023-09-19T06:49:55;14.90;82.00
81136;DHT22;70622;50.886;3.890;2023-09-19T06:55:31;15.10;81.80
81136;DHT22;70622;50.886;3.890;2023-09-19T06:57:57;15.10;81.50
81136;DHT22;70622;50.886;3.890;2023-09-19T07:00:26;15.20;81.40
81136;DHT22;70622;50.886;3.890;2023-09-19T07:03:05;15.20;81.10
81136;DHT22;70622;50.886;3.890;2023-09-19T07:05:34;15.30;80.60
81136;DHT22;70622;50.886;3.890;2023-09-19T07:08:02;15.30;80.70
81136;DHT22;70622;50.886;3.890;2023-09-19T07:10:28;15.30;80.30
81136;DHT22;70622;50.886;3.890;2023-09-19T07:12:55;15.50;80.10
81136;DHT22;70622;50.886;3.890;2023-09-19T07:15:21;15.60;79.70
81136;DHT22;70622;50.886;3.890;2023-09-19T07:18:03;15.60;79.50
81136;DHT22;70622;50.886;3.890;2023-09-19T07:20:36;15.70;79.30
81136;DHT22;70622;50.886;3.890;2023-09-19T07:23:03;15.70;79.00
81136;DHT22;70622;50.886;3.890;2023-09-19T07:25:36;15.90;78.80
81136;DHT22;70622;50.886;3.890;2023-09-19T07:28:12;15.90;78.10
81136;DHT22;70622;50.886;3.890;2023-09-19T07:30:38;16.00;77.60
81136;DHT22;70622;50.886;3.890;2023-09-19T07:46:07;16.20;76.50
81136;DHT22;70622;50.886;3.890;2023-09-19T07:52:03;16.20;76.60
81136;DHT22;70622;50.886;3.890;2023-09-19T08:03:48;16.70;74.50
81136;DHT22;70622;50.886;3.890;2023-09-19T08:06:13;16.80;74.70
81136;DHT22;70622;50.886;3.890;2023-09-19T08:08:44;16.80;74.90
81136;DHT22;70622;50.886;3.890;2023-09-19T08:11:10;16.80;74.50
81136;DHT22;70622;50.886;3.890;2023-09-19T08:13:46;17.00;74.10
81136;DHT22;70622;50.886;3.890;2023-09-19T08:16:15;17.00;73.30
81136;DHT22;70622;50.886;3.890;2023-09-19T08:18:41;17.20;73.50
81136;DHT22;70622;50.886;3.890;2023-09-19T08:21:11;17.20;72.90
81136;DHT22;70622;50.886;3.890;2023-09-19T08:23:37;17.50;71.80
81136;DHT22;70622;50.886;3.890;2023-09-19T08:26:07;17.50;71.40
81136;DHT22;70622;50.886;3.890;2023-09-19T08:28:42;17.40;71.30
81136;DHT22;70622;50.886;3.890;2023-09-19T08:31:13;17.40;70.40
81136;DHT22;70622;50.886;3.890;2023-09-19T08:33:42;17.50;71.10
81136;DHT22;70622;50.886;3.890;2023-09-19T08:36:12;17.60;69.80
81136;DHT22;70622;50.886;3.890;2023-09-19T08:38:40;17.50;69.60
81136;DHT22;70622;50.886;3.890;2023-09-19T08:41:07;17.50;69.90
81136;DHT22;70622;50.886;3.890;2023-09-19T08:43:39;17.40;69.90
81136;DHT22;70622;50.886;3.890;2023-09-19T08:46:08;17.50;70.30
81136;DHT22;70622;50.886;3.890;2023-09-19T08:48:35;17.70;69.20
81136;DHT22;70622;50.886;3.890;2023-09-19T08:51:17;17.70;68.40
81136;DHT22;70622;50.886;3.890;2023-09-19T08:54:06;17.60;69.30
81136;DHT22;70622;50.886;3.890;2023-09-19T09:09:12;17.80;68.20
81136;DHT22;70622;50.886;3.890;2023-09-19T09:11:38;18.00;67.50
81136;DHT22;70622;50.886;3.890;2023-09-19T09:14:49;18.00;67.60
81136;DHT22;70622;50.886;3.890;2023-09-19T09:17:42;18.10;67.30
81136;DHT22;70622;50.886;3.890;2023-09-19T09:22:59;18.50;66.50
81136;DHT22;70622;50.886;3.890;2023-09-19T09:38:00;18.50;65.90
81136;DHT22;70622;50.886;3.890;2023-09-19T09:40:46;18.20;66.40
81136;DHT22;70622;50.886;3.890;2023-09-19T09:43:29;18.00;66.80
81136;DHT22;70622;50.886;3.890;2023-09-19T09:46:06;17.80;68.00
81136;DHT22;70622;50.886;3.890;2023-09-19T09:49:03;17.90;68.50
81136;DHT22;70622;50.886;3.890;2023-09-19T09:51:45;17.80;69.20
81136;DHT22;70622;50.886;3.890;2023-09-19T09:54:23;17.90;68.20
81136;DHT22;70622;50.886;3.890;2023-09-19T09:57:08;18.00;68.40
81136;DHT22;70622;50.886;3.890;2023-09-19T09:59:50;18.00;67.30
81136;DHT22;70622;50.886;3.890;2023-09-19T10:02:30;18.20;67.90
81136;DHT22;70622;50.886;3.890;2023-09-19T10:05:12;18.20;67.60
81136;DHT22;70622;50.886;3.890;2023-09-19T10:07:54;18.20;68.70
81136;DHT22;70622;50.886;3.890;2023-09-19T10:10:51;18.20;68.10
81136;DHT22;70622;50.886;3.890;2023-09-19T10:16:32;18.30;67.00
81136;DHT22;70622;50.886;3.890;2023-09-19T10:19:24;18.40;66.70
81136;DHT22;70622;50.886;3.890;2023-09-19T10:22:10;18.40;67.20
81136;DHT22;70622;50.886;3.890;2023-09-19T10:24:37;18.50;65.70
81136;DHT22;70622;50.886;3.890;2023-09-19T10:27:04;18.40;66.70
81136;DHT22;70622;50.886;3.890;2023-09-19T10:29:29;18.50;66.60
81136;DHT22;70622;50.886;3.890;2023-09-19T10:31:57;18.60;65.50
81136;DHT22;70622;50.886;3.890;2023-09-19T10:34:23;18.60;66.00
81136;DHT22;70622;50.886;3.890;2023-09-19T10:36:51;18.70;65.10
81136;DHT22;70622;50.886;3.890;2023-09-19T10:39:19;18.90;64.90
81136;DHT22;70622;50.886;3.890;2023-09-19T10:41:49;18.70;64.60
81136;DHT22;70622;50.886;3.890;2023-09-19T10:44:25;18.80;65.30
81136;DHT22;70622;50.886;3.890;2023-09-19T10:46:54;18.90;64.30
81136;DHT22;70622;50.886;3.890;2023-09-19T10:54:38;19.30;64.30
81136;DHT22;70622;50.886;3.890;2023-09-19T10:57:07;19.40;63.00
81136;DHT22;70622;50.886;3.890;2023-09-19T10:59:35;19.50;62.70
81136;DHT22;70622;50.886;3.890;2023-09-19T11:02:15;19.60;61.90
81136;DHT22;70622;50.886;3.890;2023-09-19T11:04:40;19.60;61.60
81136;DHT22;70622;50.886;3.890;2023-09-19T11:07:12;19.50;62.20
81136;DHT22;70622;50.886;3.890;2023-09-19T11:09:45;19.60;61.80
81136;DHT22;70622;50.886;3.890;2023-09-19T11:12:12;19.60;62.20
81136;DHT22;70622;50.886;3.890;2023-09-19T11:14:38;19.70;61.70
81136;DHT22;70622;50.886;3.890;2023-09-19T11:30:57;20.40;58.50
81136;DHT22;70622;50.886;3.890;2023-09-19T11:33:28;20.60;59.30
81136;DHT22;70622;50.886;3.890;2023-09-19T11:36:05;20.60;57.30
81136;DHT22;70622;50.886;3.890;2023-09-19T11:49:30;20.80;57.10
81136;DHT22;70622;50.886;3.890;2023-09-19T11:52:02;20.80;56.80
81136;DHT22;70622;50.886;3.890;2023-09-19T11:54:30;20.70;57.90
81136;DHT22;70622;50.886;3.890;2023-09-19T11:57:00;20.70;56.60
81136;DHT22;70622;50.886;3.890;2023-09-19T11:59:27;20.70;57.30
81136;DHT22;70622;50.886;3.890;2023-09-19T12:01:57;20.70;57.00
81136;DHT22;70622;50.886;3.890;2023-09-19T12:07:15;20.50;58.90
81136;DHT22;70622;50.886;3.890;2023-09-19T12:09:45;20.50;58.20
81136;DHT22;70622;50.886;3.890;2023-09-19T12:12:20;20.40;58.30
81136;DHT22;70622;50.886;3.890;2023-09-19T12:14:49;20.40;58.30
81136;DHT22;70622;50.886;3.890;2023-09-19T12:17:16;20.40;58.60
81136;DHT22;70622;50.886;3.890;2023-09-19T12:19:50;20.60;57.70
81136;DHT22;70622;50.886;3.890;2023-09-19T12:22:16;20.70;58.00
81136;DHT22;70622;50.886;3.890;2023-09-19T12:24:43;20.70;58.00
81136;DHT22;70622;50.886;3.890;2023-09-19T12:27:09;20.70;58.10
81136;DHT22;70622;50.886;3.890;2023-09-19T12:29:43;20.90;58.30
81136;DHT22;70622;50.886;3.890;2023-09-19T12:32:09;20.80;57.60
81136;DHT22;70622;50.886;3.890;2023-09-19T12:34:35;20.90;57.20
81136;DHT22;70622;50.886;3.890;2023-09-19T12:37:05;21.00;57.50
81136;DHT22;70622;50.886;3.890;2023-09-19T12:39:37;21.00;57.80
81136;DHT22;70622;50.886;3.890;2023-09-19T12:42:03;21.10;57.70
81136;DHT22;70622;50.886;3.890;2023-09-19T12:44:32;21.00;57.00
81136;DHT22;70622;50.886;3.890;2023-09-19T12:47:07;21.20;57.10
81136;DHT22;70622;50.886;3.890;2023-09-19T12:49:34;21.20;56.50
81136;DHT22;70622;50.886;3.890;2023-09-19T12:52:06;21.20;56.80
81136;DHT22;70622;50.886;3.890;2023-09-19T12:54:38;21.10;56.90
81136;DHT22;70622;50.886;3.890;2023-09-19T12:57:04;21.00;57.10
81136;DHT22;70622;50.886;3.890;2023-09-19T12:59:30;20.70;58.00
81136;DHT22;70622;50.886;3.890;2023-09-19T13:02:04;20.90;58.20
81136;DHT22;70622;50.886;3.890;2023-09-19T13:04:32;21.10;57.30
81136;DHT22;70622;50.886;3.890;2023-09-19T13:07:02;21.20;57.30
81136;DHT22;70622;50.886;3.890;2023-09-19T13:09:28;21.40;56.10
81136;DHT22;70622;50.886;3.890;2023-09-19T13:11:59;21.40;56.40
81136;DHT22;70622;50.886;3.890;2023-09-19T13:14:28;21.50;56.00
81136;DHT22;70622;50.886;3.890;2023-09-19T13:17:06;21.70;56.20
81136;DHT22;70622;50.886;3.890;2023-09-19T13:19:42;21.70;56.40
81136;DHT22;70622;50.886;3.890;2023-09-19T13:25:39;21.30;57.80
81136;DHT22;70622;50.886;3.890;2023-09-19T13:28:05;20.90;57.80
81136;DHT22;70622;50.886;3.890;2023-09-19T13:30:36;20.90;58.70
81136;DHT22;70622;50.886;3.890;2023-09-19T13:33:06;21.00;58.60
81136;DHT22;70622;50.886;3.890;2023-09-19T13:35:32;21.10;57.80
81136;DHT22;70622;50.886;3.890;2023-09-19T13:38:07;21.30;57.50
81136;DHT22;70622;50.886;3.890;2023-09-19T13:50:24;21.20;57.70
81136;DHT22;70622;50.886;3.890;2023-09-19T13:52:54;20.90;57.80
81136;DHT22;70622;50.886;3.890;2023-09-19T13:55:20;21.00;58.60
81136;DHT22;70622;50.886;3.890;2023-09-19T13:57:46;21.10;58.10
81136;DHT22;70622;50.886;3.890;2023-09-19T14:00:15;21.10;58.50
81136;DHT22;70622;50.886;3.890;2023-09-19T14:02:41;21.30;57.80
81136;DHT22;70622;50.886;3.890;2023-09-19T14:05:09;21.20;57.40
81136;DHT22;70622;50.886;3.890;2023-09-19T14:07:37;21.00;58.00
81136;DHT22;70622;50.886;3.890;2023-09-19T14:10:03;20.70;58.80
81136;DHT22;70622;50.886;3.890;2023-09-19T14:12:33;21.00;58.80
81136;DHT22;70622;50.886;3.890;2023-09-19T14:15:00;21.30;58.30
81136;DHT22;70622;50.886;3.890;2023-09-19T14:17:25;21.40;57.00
81136;DHT22;70622;50.886;3.890;2023-09-19T14:19:52;21.20;57.70
81136;DHT22;70622;50.886;3.890;2023-09-19T14:22:17;21.10;58.20
81136;DHT22;70622;50.886;3.890;2023-09-19T14:24:43;21.00;58.10
81136;DHT22;70622;50.886;3.890;2023-09-19T14:27:09;20.70;59.10
81136;DHT22;70622;50.886;3.890;2023-09-19T14:29:36;20.50;60.20
81136;DHT22;70622;50.886;3.890;2023-09-19T14:32:02;20.40;60.70
81136;DHT22;70622;50.886;3.890;2023-09-19T14:34:27;20.20;61.10
81136;DHT22;70622;50.886;3.890;2023-09-19T14:37:00;20.00;62.50
81136;DHT22;70622;50.886;3.890;2023-09-19T14:39:50;19.90;62.50
81136;DHT22;70622;50.886;3.890;2023-09-19T14:42:15;19.80;63.00
81136;DHT22;70622;50.886;3.890;2023-09-19T14:44:43;19.60;62.80
81136;DHT22;70622;50.886;3.890;2023-09-19T14:47:09;19.60;63.30
81136;DHT22;70622;50.886;3.890;2023-09-19T14:49:35;19.60;63.30
81136;DHT22;70622;50.886;3.890;2023-09-19T14:52:03;19.60;62.90
81136;DHT22;70622;50.886;3.890;2023-09-19T14:54:30;19.40;63.20
81136;DHT22;70622;50.886;3.890;2023-09-19T14:57:01;19.50;63.30
81136;DHT22;70622;50.886;3.890;2023-09-19T14:59:30;19.50;63.20
81136;DHT22;70622;50.886;3.890;2023-09-19T15:01:56;19.50;63.40
81136;DHT22;70622;50.886;3.890;2023-09-19T15:04:28;19.50;63.70
81136;DHT22;70622;50.886;3.890;2023-09-19T15:06:56;19.60;63.30
81136;DHT22;70622;50.886;3.890;2023-09-19T15:09:23;19.50;64.00
81136;DHT22;70622;50.886;3.890;2023-09-19T15:11:51;19.40;64.10
81136;DHT22;70622;50.886;3.890;2023-09-19T15:14:18;19.30;64.40
81136;DHT22;70622;50.886;3.890;2023-09-19T15:16:52;19.30;64.90
81136;DHT22;70622;50.886;3.890;2023-09-19T15:19:17;19.40;64.50
81136;DHT22;70622;50.886;3.890;2023-09-19T15:21:43;19.60;64.30
81136;DHT22;70622;50.886;3.890;2023-09-19T15:24:09;19.60;64.00
81136;DHT22;70622;50.886;3.890;2023-09-19T15:26:38;19.70;64.20
81136;DHT22;70622;50.886;3.890;2023-09-19T15:29:09;19.50;64.00
81136;DHT22;70622;50.886;3.890;2023-09-19T15:31:35;19.50;64.60
81136;DHT22;70622;50.886;3.890;2023-09-19T15:34:04;19.40;64.60
81136;DHT22;70622;50.886;3.890;2023-09-19T15:36:32;19.40;65.20
81136;DHT22;70622;50.886;3.890;2023-09-19T15:39:05;19.30;65.20
81136;DHT22;70622;50.886;3.890;2023-09-19T15:44:17;19.30;65.20
81136;DHT22;70622;50.886;3.890;2023-09-19T15:46:44;19.30;65.20
81136;DHT22;70622;50.886;3.890;2023-09-19T15:49:10;19.40;65.20
81136;DHT22;70622;50.886;3.890;2023-09-19T15:51:35;19.30;64.80
81136;DHT22;70622;50.886;3.890;2023-09-19T15:54:01;19.20;64.70
81136;DHT22;70622;50.886;3.890;2023-09-19T15:56:32;19.30;65.00
81136;DHT22;70622;50.886;3.890;2023-09-19T15:58:58;19.30;65.00
81136;DHT22;70622;50.886;3.890;2023-09-19T16:01:23;19.30;65.20
81136;DHT22;70622;50.886;3.890;2023-09-19T16:03:50;19.20;65.30
81136;DHT22;70622;50.886;3.890;2023-09-19T16:06:22;19.20;65.40
81136;DHT22;70622;50.886;3.890;2023-09-19T16:08:49;19.10;65.70
81136;DHT22;70622;50.886;3.890;2023-09-19T16:11:15;19.20;66.10
81136;DHT22;70622;50.886;3.890;2023-09-19T16:13:41;19.20;66.40
81136;DHT22;70622;50.886;3.890;2023-09-19T16:16:07;19.20;65.80
81136;DHT22;70622;50.886;3.890;2023-09-19T16:18:33;19.10;66.70
81136;DHT22;70622;50.886;3.890;2023-09-19T16:21:02;19.00;67.30
81136;DHT22;70622;50.886;3.890;2023-09-19T16:23:29;19.00;67.90
81136;DHT22;70622;50.886;3.890;2023-09-19T16:26:07;19.00;68.00
81136;DHT22;70622;50.886;3.890;2023-09-19T16:28:35;19.00;68.30
81136;DHT22;70622;50.886;3.890;2023-09-19T16:31:02;18.90;69.10
81136;DHT22;70622;50.886;3.890;2023-09-19T16:33:28;19.00;70.70
81136;DHT22;70622;50.886;3.890;2023-09-19T16:35:54;18.90;71.00
81136;DHT22;70622;50.886;3.890;2023-09-19T16:38:20;18.90;71.10
81136;DHT22;70622;50.886;3.890;2023-09-19T16:40:55;18.70;72.50
81136;DHT22;70622;50.886;3.890;2023-09-19T16:43:22;18.50;72.60
81136;DHT22;70622;50.886;3.890;2023-09-19T16:45:52;18.50;73.70
81136;DHT22;70622;50.886;3.890;2023-09-19T16:48:18;18.50;75.10
81136;DHT22;70622;50.886;3.890;2023-09-19T16:50:44;18.50;73.90
81136;DHT22;70622;50.886;3.890;2023-09-19T16:53:09;18.40;74.40
81136;DHT22;70622;50.886;3.890;2023-09-19T16:55:35;18.50;74.60
81136;DHT22;70622;50.886;3.890;2023-09-19T16:58:00;18.40;74.80
81136;DHT22;70622;50.886;3.890;2023-09-19T17:00:26;18.40;75.00
81136;DHT22;70622;50.886;3.890;2023-09-19T17:02:51;18.40;74.90
81136;DHT22;70622;50.886;3.890;2023-09-19T17:05:17;18.40;75.30
81136;DHT22;70622;50.886;3.890;2023-09-19T17:07:44;18.20;75.70
81136;DHT22;70622;50.886;3.890;2023-09-19T17:10:11;18.30;75.50
81136;DHT22;70622;50.886;3.890;2023-09-19T17:12:36;18.20;75.90
81136;DHT22;70622;50.886;3.890;2023-09-19T17:15:03;18.20;76.00
81136;DHT22;70622;50.886;3.890;2023-09-19T17:17:29;18.10;76.10
81136;DHT22;70622;50.886;3.890;2023-09-19T17:19:55;18.10;76.90
81136;DHT22;70622;50.886;3.890;2023-09-19T17:22:20;18.10;76.30
81136;DHT22;70622;50.886;3.890;2023-09-19T17:24:46;18.10;76.60
81136;DHT22;70622;50.886;3.890;2023-09-19T17:27:12;18.10;76.20
81136;DHT22;70622;50.886;3.890;2023-09-19T17:29:38;18.10;76.20
81136;DHT22;70622;50.886;3.890;2023-09-19T17:32:03;18.00;76.20
81136;DHT22;70622;50.886;3.890;2023-09-19T17:34:29;18.00;76.30
81136;DHT22;70622;50.886;3.890;2023-09-19T17:36:55;18.00;76.40
81136;DHT22;70622;50.886;3.890;2023-09-19T17:39:21;18.10;76.40
81136;DHT22;70622;50.886;3.890;2023-09-19T17:41:46;18.10;76.30
81136;DHT22;70622;50.886;3.890;2023-09-19T17:44:12;18.00;76.30
81136;DHT22;70622;50.886;3.890;2023-09-19T17:46:37;18.10;76.40
81136;DHT22;70622;50.886;3.890;2023-09-19T17:49:04;18.10;76.00
81136;DHT22;70622;50.886;3.890;2023-09-19T17:51:29;18.10;75.70
81136;DHT22;70622;50.886;3.890;2023-09-19T17:53:55;18.10;75.60
81136;DHT22;70622;50.886;3.890;2023-09-19T17:56:24;18.00;75.70
81136;DHT22;70622;50.886;3.890;2023-09-19T17:58:50;18.00;76.10
81136;DHT22;70622;50.886;3.890;2023-09-19T18:01:20;18.00;76.30
81136;DHT22;70622;50.886;3.890;2023-09-19T18:03:46;17.90;76.20
81136;DHT22;70622;50.886;3.890;2023-09-19T18:06:12;18.00;76.00
81136;DHT22;70622;50.886;3.890;2023-09-19T18:08:38;18.00;75.90
81136;DHT22;70622;50.886;3.890;2023-09-19T18:11:04;17.90;75.80
81136;DHT22;70622;50.886;3.890;2023-09-19T18:13:39;17.90;76.00
81136;DHT22;70622;50.886;3.890;2023-09-19T18:16:06;18.00;75.60
81136;DHT22;70622;50.886;3.890;2023-09-19T18:18:31;17.80;75.60
81136;DHT22;70622;50.886;3.890;2023-09-19T18:20:59;17.90;75.70
81136;DHT22;70622;50.886;3.890;2023-09-19T18:23:25;17.90;75.90
81136;DHT22;70622;50.886;3.890;2023-09-19T18:25:55;17.80;75.60